Warning: fopen(/var/www/metroair/shared/private/wxdata/metar/AVWX/metar_KMDW): failed to open stream: Permission denied in /var/www/metroair/shared/private/library/orig_library/lib_airport.php on line 346

Warning: fwrite() expects parameter 1 to be resource, boolean given in /var/www/metroair/shared/private/library/orig_library/lib_airport.php on line 347

Warning: fclose() expects parameter 1 to be resource, boolean given in /var/www/metroair/shared/private/library/orig_library/lib_airport.php on line 348

Warning: fopen(/var/www/metroair/shared/private/wxdata/TAF/AVWX/taf_KDTW): failed to open stream: Permission denied in /var/www/metroair/shared/private/library/orig_library/lib_airport.php on line 533

Warning: fwrite() expects parameter 1 to be resource, boolean given in /var/www/metroair/shared/private/library/orig_library/lib_airport.php on line 534

Warning: fclose() expects parameter 1 to be resource, boolean given in /var/www/metroair/shared/private/library/orig_library/lib_airport.php on line 535
Featured Flight

MET1453 - Detroit to Chicago

Boeing 737-200
711MT
0 hrs 40 mins
199 nm
Scheduled - Daily

Bid/PiRep Status

Bid was submitted on Dec 27 2016.

PiRep # 74493: Approved by Dave Nichols on December 30th, 2016 2:54 UTC

Departure

Departing from
Detroit (DTW)
Departure gate
Scheduled Departure
GMT 1950
Local 1550
METAR KDTW 161153Z 00000KT 4SM BR BKN095 OVC180 M04/M07 A3035 RMK AO2 SLP286 I6000 T10441067 11044 21072 55000 $
TAF KDTW 161121Z 1612/1718 VRB03KT 5SM BR BKN250 FM161400 VRB03KT P6SM SCT080 OVC100 FM161800 10005KT P6SM SCT045 OVC070 TEMPO 1619/1622 6SM -RAPL OVC045 FM162200 09005KT 5SM -RA BR BKN022 OVC040 TEMPO 1622/1701 5SM -FZRA OVC022 FM170100 08006KT 2SM -RA BR OVC008 FM170500 09008KT 1SM -RA BR OVC004 FM171200 11005KT 3/4SM -SHRA BR OVC003
  • No charts available

Arrival

Arriving at
Chicago (MDW)
Arrival gate
Scheduled Arrival
GMT 2030
Local 1530
METAR KMDW 161153Z 09005KT 10SM BKN045 OVC050 01/M03 A3026 RMK AO2 SLP258 60000 T00111028 10011 20006 58006
TAF

Route Map

Planning Resources

DTW JXN LFD GSH CGT MDW
JXN V116 LEROY GSH
CRL.BENJO.GIJ.
CRL-BENJO-GIJ
PALACE3 LEROY GSH GSH3
Route:
OFP Layout:
Units:
Detailed Navlog:
ETOPS Planning:
Plan Stepclimbs:
Runway Analysis:
Include NOTAMS:
FIR NOTAMS:
Flight Maps:

Popularity

Hub Current Bids PiReps this month Total PiReps
KMCI 0 0 1
KLAX 0 0 1
KBOS 0 0 0